Time;durP1;ratioP1;P1;durP2;ratioP2;P2;SDS_P1;SDS_P2;PMS_P1;PMS_P2;Temp;Humidity;BMP_temperature;BMP_pressure;BME280_temperature;BME280_humidity;BME280_pressure;Samples;Min_cycle;Max_cycle;Signal;HPM_P1;HPM_P2
2021/09/08 00:00:29;;;;;;;20.70;12.48;;;;;;;11.74;80.11;102409.22;5006754;28;20175;-84
2021/09/08 00:02:55;;;;;;;17.75;11.70;;;;;;;11.70;80.11;102417.94;5007341;28;20658;-83
2021/09/08 00:05:20;;;;;;;15.60;12.02;;;;;;;11.64;80.33;102419.59;5004946;28;20116;-83
2021/09/08 00:07:46;;;;;;;20.42;11.95;;;;;;;11.63;80.49;102409.06;5017484;28;20018;-83
2021/09/08 00:10:12;;;;;;;18.63;10.88;;;;;;;11.59;80.28;102410.53;4997586;28;20116;-82
2021/09/08 00:12:38;;;;;;;17.33;11.45;;;;;;;11.55;80.66;102412.00;5001301;28;20066;-85
2021/09/08 00:15:07;;;;;;;19.35;11.55;;;;;;;11.50;80.41;102410.81;5000421;28;20048;-84
2021/09/08 00:17:33;;;;;;;19.35;11.77;;;;;;;11.48;80.78;102409.34;5005625;28;20170;-84
2021/09/08 00:19:59;;;;;;;14.68;10.70;;;;;;;11.43;80.61;102403.78;5008524;28;20080;-84
2021/09/08 00:22:24;;;;;;;15.43;10.55;;;;;;;11.43;80.63;102409.16;5005808;28;20033;-84
2021/09/08 00:24:50;;;;;;;16.52;11.57;;;;;;;11.43;80.50;102415.34;5000580;28;20045;-84
2021/09/08 00:27:16;;;;;;;22.88;14.30;;;;;;;11.35;80.81;102415.59;5005163;28;20033;-85
2021/09/08 00:29:41;;;;;;;21.50;13.23;;;;;;;11.32;80.92;102409.84;5010508;28;20032;-84
2021/09/08 00:32:07;;;;;;;18.45;12.80;;;;;;;11.31;81.21;102413.53;5028458;28;20080;-84
2021/09/08 00:34:33;;;;;;;18.00;12.20;;;;;;;11.28;81.40;102411.28;5008846;28;20052;-84
2021/09/08 00:36:58;;;;;;;17.05;12.40;;;;;;;11.23;81.51;102411.09;5008565;28;20560;-84
2021/09/08 00:39:24;;;;;;;17.70;11.98;;;;;;;11.19;81.08;102411.53;5009963;28;20128;-84
2021/09/08 00:41:49;;;;;;;18.70;12.60;;;;;;;11.16;81.45;102409.28;5012731;28;20068;-84
2021/09/08 00:44:15;;;;;;;19.77;11.98;;;;;;;11.08;81.35;102409.50;5011042;28;20021;-84
2021/09/08 00:46:42;;;;;;;18.75;11.88;;;;;;;11.10;81.59;102406.59;5010078;28;20029;-84
2021/09/08 00:49:09;;;;;;;18.00;12.77;;;;;;;11.05;81.72;102414.47;5010112;28;20263;-84
2021/09/08 00:51:35;;;;;;;16.77;11.65;;;;;;;11.02;81.70;102417.56;5010571;28;20025;-84
2021/09/08 00:54:04;;;;;;;16.88;11.70;;;;;;;10.98;81.61;102417.16;5013441;28;20725;-84
2021/09/08 00:56:30;;;;;;;21.13;12.05;;;;;;;10.95;81.50;102419.41;5010112;28;20021;-84
2021/09/08 00:58:57;;;;;;;17.17;10.98;;;;;;;10.89;81.74;102416.56;5009257;28;20029;-83
2021/09/08 01:01:22;;;;;;;13.85;10.38;;;;;;;10.88;81.61;102424.81;5026182;28;20033;-84
2021/09/08 01:03:48;;;;;;;12.52;10.23;;;;;;;10.86;81.88;102419.66;5025933;28;21496;-85
2021/09/08 01:06:14;;;;;;;17.88;12.15;;;;;;;10.86;81.79;102421.50;5005880;28;20037;-84
2021/09/08 01:08:40;;;;;;;15.52;11.07;;;;;;;10.85;82.06;102419.88;5011803;28;20021;-84
2021/09/08 01:11:06;;;;;;;21.70;12.57;;;;;;;10.80;82.02;102422.38;5007432;28;20025;-84
2021/09/08 01:13:32;;;;;;;22.42;13.25;;;;;;;10.74;82.09;102423.16;5002161;28;20385;-86
2021/09/08 01:16:01;;;;;;;17.95;12.65;;;;;;;10.67;81.98;102425.03;5006231;28;20025;-84
2021/09/08 01:18:31;;;;;;;15.85;10.05;;;;;;;10.65;81.81;102421.75;5006976;28;20022;-84
2021/09/08 01:20:56;;;;;;;13.52;9.90;;;;;;;10.58;81.63;102419.88;5016105;28;20018;-84
2021/09/08 01:23:22;;;;;;;13.20;9.77;;;;;;;10.57;81.88;102420.91;5012496;28;20013;-85
2021/09/08 01:25:47;;;;;;;14.73;10.13;;;;;;;10.52;81.89;102426.09;5024133;28;20029;-84
2021/09/08 01:28:13;;;;;;;18.33;11.18;;;;;;;10.50;82.34;102420.09;5017070;28;20467;-83
2021/09/08 01:30:41;;;;;;;16.38;10.23;;;;;;;10.49;82.45;102431.84;5017516;28;20048;-84
2021/09/08 01:33:09;;;;;;;15.57;11.68;;;;;;;10.46;82.38;102416.19;5013120;28;20120;-85
2021/09/08 01:35:34;;;;;;;18.98;11.52;;;;;;;10.44;82.53;102426.31;5020445;28;20594;-85
2021/09/08 01:38:00;;;;;;;20.88;12.10;;;;;;;10.42;82.33;102423.00;5003411;28;20116;-86
2021/09/08 01:40:25;;;;;;;18.17;10.50;;;;;;;10.38;82.63;102424.44;5006107;28;20105;-84
2021/09/08 01:42:51;;;;;;;17.50;11.45;;;;;;;10.37;82.83;102417.41;5007121;28;20068;-84
2021/09/08 01:45:17;;;;;;;14.63;10.77;;;;;;;10.37;82.45;102417.41;4999446;28;20512;-85
2021/09/08 01:47:44;;;;;;;16.02;11.45;;;;;;;10.37;82.56;102416.59;4999195;28;20029;-86
2021/09/08 01:50:11;;;;;;;24.45;13.32;;;;;;;10.33;82.51;102418.88;4997290;28;20034;-86
2021/09/08 01:52:37;;;;;;;18.45;12.40;;;;;;;10.29;82.58;102414.97;4992580;28;20037;-85
2021/09/08 01:55:05;;;;;;;15.95;11.15;;;;;;;10.26;82.33;102415.38;4999635;28;20068;-85
2021/09/08 01:57:32;;;;;;;18.65;12.15;;;;;;;10.23;82.64;102418.44;5000204;28;20033;-87
2021/09/08 01:59:57;;;;;;;17.65;12.18;;;;;;;10.20;83.01;102418.81;5006726;28;20173;-85
2021/09/08 02:02:22;;;;;;;17.48;12.30;;;;;;;10.17;83.19;102416.56;5004015;28;20491;-84
2021/09/08 02:04:48;;;;;;;15.23;11.75;;;;;;;10.13;83.14;102418.81;4997366;28;20029;-84
2021/09/08 02:07:13;;;;;;;17.60;12.23;;;;;;;10.11;83.26;102412.03;5015523;28;21573;-84
2021/09/08 02:09:39;;;;;;;20.80;11.57;;;;;;;10.11;83.16;102417.38;5019226;28;20056;-84
2021/09/08 02:12:05;;;;;;;18.85;11.80;;;;;;;10.02;83.92;102413.22;5003723;28;20529;-84
2021/09/08 02:14:30;;;;;;;17.52;12.32;;;;;;;10.04;83.78;102411.16;5000439;28;20057;-84
2021/09/08 02:16:56;;;;;;;18.45;12.50;;;;;;;10.03;83.90;102407.66;5005122;28;20025;-85
2021/09/08 02:19:21;;;;;;;16.02;11.60;;;;;;;10.03;83.20;102412.19;5019819;28;20061;-84
2021/09/08 02:21:48;;;;;;;18.33;11.95;;;;;;;10.00;83.37;102413.44;5008083;28;20060;-84
2021/09/08 02:24:13;;;;;;;15.57;11.13;;;;;;;9.97;83.36;102421.88;5008174;28;21031;-85
2021/09/08 02:26:39;;;;;;;17.35;11.43;;;;;;;9.90;83.18;102419.22;5007180;28;20029;-86
2021/09/08 02:29:04;;;;;;;15.65;10.88;;;;;;;9.85;83.11;102418.97;5012762;28;21004;-84
2021/09/08 02:31:31;;;;;;;17.40;10.27;;;;;;;9.83;83.45;102417.53;5024070;28;20740;-85
2021/09/08 02:33:57;;;;;;;17.40;11.55;;;;;;;9.84;83.26;102416.50;5008598;28;20694;-85
2021/09/08 02:36:23;;;;;;;19.40;11.40;;;;;;;9.78;83.68;102420.81;5006747;28;20029;-84
2021/09/08 02:38:50;;;;;;;20.55;12.30;;;;;;;9.77;83.47;102424.50;5008781;28;20032;-84
2021/09/08 02:41:16;;;;;;;16.98;11.57;;;;;;;9.72;83.91;102416.28;5005591;28;20025;-85
2021/09/08 02:43:41;;;;;;;16.17;12.02;;;;;;;9.71;83.68;102422.66;5006522;28;20037;-84
2021/09/08 02:46:07;;;;;;;16.23;10.98;;;;;;;9.69;83.68;102412.16;5009000;28;20033;-84
2021/09/08 02:48:34;;;;;;;14.90;10.32;;;;;;;9.71;83.73;102419.97;5003878;28;20037;-83
2021/09/08 02:51:01;;;;;;;15.32;10.98;;;;;;;9.68;83.50;102410.47;5011255;28;20043;-83
2021/09/08 02:53:27;;;;;;;19.60;12.80;;;;;;;9.57;83.62;102411.06;5004147;28;20037;-83
2021/09/08 02:55:53;;;;;;;17.67;11.68;;;;;;;9.58;83.15;102411.91;5003968;28;20037;-84
2021/09/08 02:58:18;;;;;;;16.77;12.20;;;;;;;9.50;83.84;102406.72;5014505;28;20029;-83
2021/09/08 03:00:44;;;;;;;15.95;11.15;;;;;;;9.45;83.64;102401.97;5006186;28;20095;-84
2021/09/08 03:03:10;;;;;;;15.30;11.18;;;;;;;9.49;84.04;102400.53;5007224;28;20109;-84
2021/09/08 03:05:35;;;;;;;14.10;11.05;;;;;;;9.52;84.13;102396.66;5002708;28;20083;-83
2021/09/08 03:08:03;;;;;;;12.00;9.43;;;;;;;9.53;83.99;102399.13;5004113;28;20128;-83
2021/09/08 03:10:31;;;;;;;15.27;10.32;;;;;;;9.51;84.29;102392.31;5015715;28;20030;-83
2021/09/08 03:12:57;;;;;;;13.73;10.07;;;;;;;9.48;84.62;102398.06;5018364;28;20030;-83
2021/09/08 03:15:22;;;;;;;13.23;10.10;;;;;;;9.47;84.64;102389.22;4993200;28;20068;-83
2021/09/08 03:17:48;;;;;;;14.88;10.05;;;;;;;9.49;84.84;102397.03;4997678;28;20037;-83
2021/09/08 03:20:14;;;;;;;12.27;9.35;;;;;;;9.50;84.89;102394.16;5015144;28;20130;-84
2021/09/08 03:22:39;;;;;;;13.00;10.23;;;;;;;9.47;84.88;102396.41;4999202;28;20072;-83
2021/09/08 03:25:06;;;;;;;14.27;9.18;;;;;;;9.44;85.39;102394.97;5001998;28;20063;-83
2021/09/08 03:27:32;;;;;;;13.50;10.68;;;;;;;9.40;85.13;102391.06;4997614;28;20033;-83
2021/09/08 03:29:57;;;;;;;15.88;10.60;;;;;;;9.39;85.52;102387.56;4997861;28;20084;-83
2021/09/08 03:32:23;;;;;;;12.02;9.82;;;;;;;9.36;85.49;102387.94;5000336;28;20082;-83
2021/09/08 03:34:48;;;;;;;13.27;10.27;;;;;;;9.35;85.69;102391.66;4997676;28;20079;-84
2021/09/08 03:37:14;;;;;;;14.65;10.95;;;;;;;9.33;85.66;102390.19;5000032;28;20063;-84
2021/09/08 03:39:39;;;;;;;13.60;9.23;;;;;;;9.27;85.92;102385.63;5018005;28;20112;-84
2021/09/08 03:42:05;;;;;;;14.95;11.10;;;;;;;9.24;85.93;102388.72;5004027;28;20091;-84
2021/09/08 03:44:31;;;;;;;15.43;10.20;;;;;;;9.16;85.86;102387.03;5011627;28;20041;-83
2021/09/08 03:46:56;;;;;;;15.02;10.82;;;;;;;9.17;85.61;102390.53;5002024;28;20025;-84
2021/09/08 03:49:22;;;;;;;15.80;10.55;;;;;;;9.13;85.81;102390.09;5002467;28;20063;-83
2021/09/08 03:51:47;;;;;;;15.90;11.32;;;;;;;9.12;85.67;102388.44;4999109;28;20036;-83
2021/09/08 03:54:13;;;;;;;15.43;10.20;;;;;;;9.11;85.50;102378.78;4999918;28;20034;-83
2021/09/08 03:56:38;;;;;;;15.90;11.18;;;;;;;9.14;85.71;102388.25;5001653;28;20029;-83
2021/09/08 03:59:04;;;;;;;14.30;10.15;;;;;;;9.13;85.39;102389.28;4996512;28;20025;-83
2021/09/08 04:01:29;;;;;;;13.70;10.05;;;;;;;9.14;85.29;102393.59;4997235;28;20037;-83
2021/09/08 04:03:55;;;;;;;12.98;9.63;;;;;;;9.13;85.58;102395.44;5003067;28;20025;-83
2021/09/08 04:06:20;;;;;;;13.10;9.98;;;;;;;9.13;85.52;102386.59;5015724;28;20399;-82
2021/09/08 04:08:46;;;;;;;15.00;9.35;;;;;;;9.11;85.33;102391.31;5005072;28;20060;-83
2021/09/08 04:11:11;;;;;;;12.82;9.57;;;;;;;9.08;85.65;102379.19;4999781;28;20111;-82
2021/09/08 04:13:37;;;;;;;14.45;9.80;;;;;;;9.04;85.43;102386.78;4999899;28;20492;-83
2021/09/08 04:16:03;;;;;;;14.75;9.80;;;;;;;9.08;85.38;102387.19;5002126;28;20025;-83
2021/09/08 04:18:28;;;;;;;15.40;9.98;;;;;;;9.06;85.35;102381.22;5000404;28;20032;-83
2021/09/08 04:20:56;;;;;;;12.07;9.10;;;;;;;9.07;85.51;102380.19;4997948;28;20032;-84
2021/09/08 04:23:22;;;;;;;13.30;9.30;;;;;;;9.10;85.83;102385.16;4998522;28;20087;-82
2021/09/08 04:25:47;;;;;;;13.30;10.07;;;;;;;9.15;85.83;102388.03;5017780;28;21227;-82
2021/09/08 04:28:13;;;;;;;18.70;11.60;;;;;;;9.17;85.46;102394.03;5000155;28;22236;-83
2021/09/08 04:30:39;;;;;;;16.10;10.90;;;;;;;9.20;85.57;102380.28;5000527;28;20033;-82
2021/09/08 04:33:04;;;;;;;12.45;9.23;;;;;;;9.21;85.91;102384.59;5001265;28;20037;-84
2021/09/08 04:35:30;;;;;;;16.85;10.80;;;;;;;9.21;85.58;102384.59;5000799;28;20029;-84
2021/09/08 04:37:55;;;;;;;25.80;12.48;;;;;;;9.22;85.84;102390.78;5000807;28;20955;-84
2021/09/08 04:40:21;;;;;;;22.70;13.30;;;;;;;9.20;85.78;102387.47;5002047;28;21722;-83
2021/09/08 04:42:46;;;;;;;21.85;13.20;;;;;;;9.21;86.07;102387.28;5018868;28;20036;-83
2021/09/08 04:45:12;;;;;;;19.88;12.43;;;;;;;9.23;86.28;102382.53;4999814;28;20077;-83
2021/09/08 04:47:38;;;;;;;22.42;12.68;;;;;;;9.23;86.21;102382.53;4995988;28;20029;-83
2021/09/08 04:50:06;;;;;;;22.95;12.40;;;;;;;9.23;86.19;102377.19;5002080;28;20033;-80
2021/09/08 04:52:32;;;;;;;21.20;13.35;;;;;;;9.26;86.15;102376.78;4996083;28;20052;-81
2021/09/08 04:54:58;;;;;;;16.42;11.95;;;;;;;9.25;86.53;102382.34;5000837;28;20063;-81
2021/09/08 04:57:24;;;;;;;22.90;12.95;;;;;;;9.32;86.42;102388.53;5002569;28;20624;-82
2021/09/08 04:59:49;;;;;;;21.45;12.57;;;;;;;9.33;86.49;102385.66;5002768;28;20035;-82
2021/09/08 05:02:15;;;;;;;26.98;14.60;;;;;;;9.38;86.52;102385.91;4999302;28;21007;-81
2021/09/08 05:04:41;;;;;;;27.80;13.65;;;;;;;9.48;86.07;102385.50;5012135;28;20748;-81
2021/09/08 05:07:06;;;;;;;18.80;12.70;;;;;;;9.56;86.02;102381.84;4998874;28;20447;-81
2021/09/08 05:09:32;;;;;;;22.13;12.43;;;;;;;9.64;85.66;102384.31;4995248;28;20030;-81
2021/09/08 05:11:57;;;;;;;20.75;12.77;;;;;;;9.79;85.59;102386.84;5000596;28;20033;-80
2021/09/08 05:14:23;;;;;;;23.17;13.07;;;;;;;9.89;85.44;102385.44;4997597;28;20448;-80
2021/09/08 05:16:48;;;;;;;18.75;12.88;;;;;;;9.99;85.26;102388.50;5000002;28;20158;-80
2021/09/08 05:19:14;;;;;;;20.55;14.32;;;;;;;10.09;85.29;102390.81;5000287;28;20032;-80
2021/09/08 05:21:40;;;;;;;20.73;13.15;;;;;;;10.18;84.92;102384.22;5015304;28;20615;-80
2021/09/08 05:24:05;;;;;;;21.60;14.68;;;;;;;10.24;84.82;102380.75;5013673;28;20060;-80
2021/09/08 05:26:31;;;;;;;21.90;13.95;;;;;;;10.30;84.96;102381.78;5013695;28;20068;-80
2021/09/08 05:28:56;;;;;;;19.90;13.95;;;;;;;10.39;84.95;102385.88;5000671;28;20115;-80
2021/09/08 05:31:22;;;;;;;19.50;12.75;;;;;;;10.47;84.94;102382.19;4999080;28;20034;-80
2021/09/08 05:33:47;;;;;;;23.88;12.07;;;;;;;10.56;85.13;102388.97;4999168;28;20093;-80
2021/09/08 05:36:15;;;;;;;17.35;12.02;;;;;;;10.65;84.62;102384.22;5000695;28;20040;-81
2021/09/08 05:38:41;;;;;;;16.73;10.70;;;;;;;10.70;84.71;102381.75;4999063;28;20036;-80
2021/09/08 05:41:08;;;;;;;16.52;11.68;;;;;;;10.79;84.22;102383.19;5013794;28;20043;-81
2021/09/08 05:43:34;;;;;;;15.25;11.20;;;;;;;10.84;84.45;102386.88;5001049;28;20026;-81
2021/09/08 05:46:00;;;;;;;15.70;11.30;;;;;;;10.95;84.31;102381.88;4997117;28;20094;-80
2021/09/08 05:48:25;;;;;;;19.33;12.27;;;;;;;11.11;83.89;102384.09;4999061;28;20022;-80
2021/09/08 05:50:51;;;;;;;18.75;13.63;;;;;;;11.26;83.72;102375.78;4998061;28;20033;-80
2021/09/08 05:53:16;;;;;;;20.35;13.65;;;;;;;11.45;83.62;102380.25;4994350;28;20029;-80
2021/09/08 05:55:42;;;;;;;19.33;13.85;;;;;;;11.68;83.36;102383.25;5010772;28;20102;-80
2021/09/08 05:58:08;;;;;;;19.42;13.32;;;;;;;11.92;82.82;102378.16;5011304;28;20040;-81
2021/09/08 06:00:33;;;;;;;19.92;13.63;;;;;;;12.13;82.34;102377.78;4996104;28;20037;-80
2021/09/08 06:02:59;;;;;;;19.45;13.57;;;;;;;12.33;82.45;102385.69;4992115;28;20506;-80
2021/09/08 06:05:24;;;;;;;19.63;13.50;;;;;;;12.51;81.96;102372.28;4993573;28;20033;-80
2021/09/08 06:07:50;;;;;;;24.55;15.60;;;;;;;12.72;81.54;102379.13;4996056;28;20029;-80
2021/09/08 06:10:18;;;;;;;23.58;16.25;;;;;;;12.85;81.30;102381.69;4998159;28;20144;-81
2021/09/08 06:12:44;;;;;;;22.80;15.27;;;;;;;13.01;81.32;102383.78;4994213;28;20140;-80
2021/09/08 06:15:12;;;;;;;24.50;16.33;;;;;;;13.17;81.41;102368.91;5011160;28;20486;-80
2021/09/08 06:17:38;;;;;;;24.75;15.75;;;;;;;13.35;81.55;102370.78;4996880;28;20033;-81
2021/09/08 06:20:04;;;;;;;25.20;17.35;;;;;;;13.52;81.04;102369.09;4995119;28;20510;-81
2021/09/08 06:22:29;;;;;;;22.35;16.88;;;;;;;13.66;80.47;102379.69;4994965;28;20963;-81
2021/09/08 06:24:55;;;;;;;25.63;17.45;;;;;;;13.80;80.72;102376.56;5009509;28;20033;-80
2021/09/08 06:27:20;;;;;;;24.50;16.90;;;;;;;13.93;80.46;102380.13;5009753;28;20026;-80
2021/09/08 06:29:46;;;;;;;28.35;17.90;;;;;;;14.08;80.17;102381.31;4992706;28;20033;-80
2021/09/08 06:32:11;;;;;;;22.45;16.63;;;;;;;14.23;80.23;102385.47;5010652;28;20037;-80
2021/09/08 06:34:37;;;;;;;23.27;15.90;;;;;;;14.42;79.79;102384.31;4997631;28;20608;-81
2021/09/08 06:37:03;;;;;;;24.45;16.15;;;;;;;14.58;79.26;102377.41;4997756;28;20187;-80
2021/09/08 06:39:29;;;;;;;25.58;16.88;;;;;;;14.73;79.46;102378.59;4995296;28;20045;-80
2021/09/08 06:41:55;;;;;;;23.02;16.83;;;;;;;14.89;78.76;102384.28;4994587;28;20064;-80
2021/09/08 06:44:23;;;;;;;27.10;18.58;;;;;;;15.08;78.86;102372.28;4996320;28;20601;-82
2021/09/08 06:46:50;;;;;;;23.35;17.00;;;;;;;15.30;78.62;102376.00;4993399;28;20590;-82
2021/09/08 06:49:16;;;;;;;23.08;16.70;;;;;;;15.48;78.35;102376.88;4995283;28;20077;-82
2021/09/08 06:51:41;;;;;;;22.63;16.08;;;;;;;15.67;77.96;102376.47;4990697;28;20164;-82
2021/09/08 06:54:07;;;;;;;27.38;16.77;;;;;;;15.87;77.28;102376.00;5012421;28;20064;-82
2021/09/08 06:56:32;;;;;;;22.30;16.08;;;;;;;16.01;76.93;102377.34;4994446;28;20491;-82
2021/09/08 06:58:58;;;;;;;27.75;17.30;;;;;;;16.08;77.01;102369.06;5011012;28;20029;-82
2021/09/08 07:01:23;;;;;;;23.42;17.38;;;;;;;16.30;76.92;102369.13;4998534;28;21538;-81
2021/09/08 07:03:49;;;;;;;20.40;15.38;;;;;;;16.52;76.34;102358.38;4998727;28;20921;-82
2021/09/08 07:06:14;;;;;;;20.67;16.50;;;;;;;16.67;75.94;102364.03;4999220;28;20029;-82
2021/09/08 07:08:40;;;;;;;26.00;17.70;;;;;;;16.76;75.94;102364.44;4996111;28;20029;-82
2021/09/08 07:11:05;;;;;;;22.05;16.10;;;;;;;16.96;75.79;102363.88;5011891;28;20060;-82
2021/09/08 07:13:31;;;;;;;23.15;15.85;;;;;;;17.13;74.70;102360.03;4994968;28;20124;-82
2021/09/08 07:15:56;;;;;;;25.05;16.77;;;;;;;17.31;75.02;102358.88;4996695;28;20541;-82
2021/09/08 07:18:22;;;;;;;22.13;14.95;;;;;;;17.51;75.00;102363.72;5000339;28;20040;-82
2021/09/08 07:20:47;;;;;;;20.58;15.68;;;;;;;17.68;74.07;102372.59;5006102;28;20621;-82
2021/09/08 07:23:13;;;;;;;27.13;16.15;;;;;;;17.84;73.66;102362.72;5012694;28;20508;-82
2021/09/08 07:25:38;;;;;;;20.92;15.30;;;;;;;18.03;73.35;102363.13;4996186;28;20037;-82
2021/09/08 07:28:05;;;;;;;25.25;16.63;;;;;;;18.18;72.86;102368.69;5011880;28;20451;-82
2021/09/08 07:30:32;;;;;;;20.98;16.45;;;;;;;18.40;72.66;102366.69;4994240;28;20124;-82
2021/09/08 07:32:58;;;;;;;24.42;16.90;;;;;;;18.35;72.17;102357.69;4998673;28;20028;-82
2021/09/08 07:35:23;;;;;;;24.17;15.85;;;;;;;18.61;71.94;102362.19;5013927;28;20679;-82
2021/09/08 07:37:49;;;;;;;20.98;16.52;;;;;;;18.79;71.29;102358.25;4992380;28;20027;-82
2021/09/08 07:40:15;;;;;;;21.42;16.27;;;;;;;18.87;70.34;102357.75;4999012;28;20029;-81
2021/09/08 07:42:41;;;;;;;19.75;14.98;;;;;;;19.04;69.91;102356.75;5014860;28;20369;-82
2021/09/08 07:45:07;;;;;;;21.48;15.43;;;;;;;19.22;69.42;102356.25;4996707;28;20033;-82
2021/09/08 07:47:33;;;;;;;16.65;13.60;;;;;;;19.24;67.89;102343.22;5000786;28;20813;-82
2021/09/08 07:49:58;;;;;;;20.85;14.55;;;;;;;19.30;67.67;102347.56;5012864;28;20498;-82
2021/09/08 07:52:24;;;;;;;20.08;14.57;;;;;;;19.46;67.49;102346.53;4999385;28;20545;-82
2021/09/08 07:54:49;;;;;;;17.80;13.98;;;;;;;19.56;67.11;102349.28;5014090;28;20032;-82
2021/09/08 07:57:15;;;;;;;22.80;14.68;;;;;;;19.65;67.06;102344.16;5001333;28;20120;-82
2021/09/08 07:59:40;;;;;;;19.00;14.00;;;;;;;19.86;66.39;102345.78;5014470;28;20052;-83
2021/09/08 08:02:06;;;;;;;18.48;13.27;;;;;;;19.90;66.19;102343.34;4999627;28;20037;-83
2021/09/08 08:04:31;;;;;;;19.13;14.75;;;;;;;20.06;65.74;102350.41;5013795;28;20038;-82
2021/09/08 08:06:57;;;;;;;17.33;13.05;;;;;;;20.16;64.74;102352.31;5011334;28;20515;-82
2021/09/08 08:09:22;;;;;;;16.90;12.80;;;;;;;20.37;64.66;102345.75;5001577;28;20021;-83
2021/09/08 08:11:48;;;;;;;15.80;11.40;;;;;;;20.54;63.83;102344.66;5002356;28;20029;-82
2021/09/08 08:14:13;;;;;;;17.88;12.73;;;;;;;20.32;63.37;102342.22;5002353;28;20473;-83
2021/09/08 08:16:39;;;;;;;15.82;12.25;;;;;;;20.35;63.52;102352.56;5002619;28;20025;-82
2021/09/08 08:19:05;;;;;;;16.02;11.27;;;;;;;20.25;62.75;102345.22;5000008;28;20080;-82
2021/09/08 08:21:31;;;;;;;19.45;11.98;;;;;;;20.44;63.10;102343.56;4994928;28;20922;-82
2021/09/08 08:23:57;;;;;;;16.70;11.60;;;;;;;20.68;62.25;102341.09;5009542;28;20029;-82
2021/09/08 08:26:23;;;;;;;16.90;12.07;;;;;;;20.95;62.30;102343.41;5000644;28;20393;-82
2021/09/08 08:28:48;;;;;;;39.83;25.95;;;;;;;21.16;61.37;102335.94;5001773;28;20124;-82
2021/09/08 08:31:15;;;;;;;24.63;17.50;;;;;;;21.31;60.79;102340.53;4998972;28;20018;-82
2021/09/08 08:33:41;;;;;;;20.70;14.20;;;;;;;21.36;60.23;102333.16;5011745;28;20029;-82
2021/09/08 08:36:07;;;;;;;20.15;12.02;;;;;;;21.22;60.02;102334.84;5011298;28;20040;-82
2021/09/08 08:38:32;;;;;;;17.27;11.10;;;;;;;21.44;59.94;102325.47;5014574;28;20025;-81
2021/09/08 08:40:58;;;;;;;18.13;11.35;;;;;;;21.70;59.79;102335.09;5012776;28;20053;-82
2021/09/08 08:43:23;;;;;;;15.70;11.52;;;;;;;21.74;58.86;102325.25;4997455;28;21979;-82
2021/09/08 08:45:49;;;;;;;15.70;10.90;;;;;;;21.87;59.20;102330.03;5008936;28;20036;-83
2021/09/08 08:48:15;;;;;;;14.57;10.88;;;;;;;22.11;58.75;102330.16;4988172;28;20075;-82
2021/09/08 08:50:42;;;;;;;14.32;10.07;;;;;;;22.35;58.10;102332.09;4995232;28;20123;-81
2021/09/08 08:53:07;;;;;;;14.60;9.82;;;;;;;22.56;57.08;102331.56;4995446;28;20108;-82
2021/09/08 08:55:33;;;;;;;15.38;10.88;;;;;;;22.77;56.60;102331.34;5000009;28;20618;-81
2021/09/08 08:57:59;;;;;;;16.92;11.68;;;;;;;22.85;56.13;102334.28;4992402;28;20292;-82
2021/09/08 09:00:26;;;;;;;17.77;12.90;;;;;;;23.01;55.29;102328.63;5005774;28;20725;-82
2021/09/08 09:02:53;;;;;;;16.13;11.30;;;;;;;23.08;53.56;102324.41;5008086;28;20523;-82
2021/09/08 09:05:32;;;;;;;16.15;11.55;;;;;;;23.11;53.55;102328.47;4996472;28;20108;-82
2021/09/08 09:07:58;;;;;;;16.20;12.23;;;;;;;23.18;53.63;102324.28;4991565;28;21071;-82
2021/09/08 09:10:24;;;;;;;16.08;13.18;;;;;;;23.41;53.19;102319.84;4995236;28;20140;-82
2021/09/08 09:12:50;;;;;;;18.23;10.38;;;;;;;23.28;50.25;102319.75;5012890;28;20042;-82
2021/09/08 09:15:22;;;;;;;14.50;9.10;;;;;;;23.30;49.70;102318.34;4992584;28;20558;-82
2021/09/08 09:17:48;;;;;;;13.88;10.48;;;;;;;23.36;50.39;102321.84;4996669;28;20033;-82
2021/09/08 09:20:18;;;;;;;11.23;8.98;;;;;;;23.52;49.00;102317.75;4997269;28;20033;-82
2021/09/08 09:22:55;;;;;;;11.52;8.43;;;;;;;23.66;49.29;102313.16;4998656;28;20828;-82
2021/09/08 09:25:36;;;;;;;13.38;9.45;;;;;;;23.86;49.53;102308.47;4999949;28;20021;-82
2021/09/08 09:28:04;;;;;;;14.45;9.30;;;;;;;24.00;49.86;102309.31;5011001;28;20045;-81
2021/09/08 09:30:33;;;;;;;14.10;9.75;;;;;;;24.13;49.57;102308.53;4992070;28;20036;-82
2021/09/08 09:32:59;;;;;;;13.15;9.25;;;;;;;24.27;49.26;102306.63;4994871;28;20029;-82
2021/09/08 09:35:32;;;;;;;14.20;9.52;;;;;;;24.46;49.67;102297.53;5002894;28;20033;-82
2021/09/08 09:38:01;;;;;;;11.23;8.10;;;;;;;24.71;48.79;102297.81;4994849;28;20487;-82
2021/09/08 09:40:30;;;;;;;10.95;8.32;;;;;;;24.54;46.89;102296.81;5001775;28;20041;-82
2021/09/08 09:43:11;;;;;;;10.18;7.22;;;;;;;24.64;46.07;102289.22;4991527;28;20033;-82
2021/09/08 09:45:38;;;;;;;12.30;7.88;;;;;;;24.43;45.62;102293.50;5014865;28;20029;-82
2021/09/08 09:48:05;;;;;;;12.80;8.13;;;;;;;24.48;45.77;102295.31;5012760;28;20580;-82
2021/09/08 09:50:33;;;;;;;12.43;7.38;;;;;;;24.55;45.31;102288.28;5000297;28;20120;-81
2021/09/08 09:52:59;;;;;;;11.13;8.20;;;;;;;24.73;46.07;102277.50;4994017;28;20071;-82
2021/09/08 09:55:26;;;;;;;11.73;7.32;;;;;;;24.49;45.93;102278.56;5014629;28;20033;-82
2021/09/08 09:57:53;;;;;;;10.10;7.50;;;;;;;24.63;45.75;102278.56;4998348;28;20243;-82
2021/09/08 10:00:19;;;;;;;14.25;8.50;;;;;;;24.74;45.38;102273.66;4996246;28;20033;-82
2021/09/08 10:02:45;;;;;;;10.50;6.97;;;;;;;24.74;44.50;102263.50;4997377;28;20861;-81
2021/09/08 10:05:11;;;;;;;9.98;6.63;;;;;;;25.06;44.60;102269.97;4999723;28;20040;-82
2021/09/08 10:07:38;;;;;;;10.73;7.45;;;;;;;25.19;44.87;102261.69;4995401;28;20124;-81
2021/09/08 10:10:22;;;;;;;9.00;7.57;;;;;;;25.12;44.14;102258.56;4991642;28;20128;-82
2021/09/08 10:13:17;;;;;;;10.68;7.78;;;;;;;25.45;45.12;102256.41;5012837;28;20034;-82
2021/09/08 10:15:43;;;;;;;;;;;;;;;24.59;45.20;102255.59;4991479;28;20061;-82
2021/09/08 10:18:11;;;;;;;11.80;7.60;;;;;;;24.94;45.12;102254.00;4998529;28;19972;-82
2021/09/08 10:20:38;;;;;;;12.68;7.32;;;;;;;25.54;44.29;102238.06;5011857;28;20117;-82
2021/09/08 10:23:09;;;;;;;10.15;7.30;;;;;;;25.44;42.58;102243.81;4998030;28;20021;-82
2021/09/08 10:25:35;;;;;;;11.93;7.20;;;;;;;25.48;42.89;102249.47;5011786;28;20025;-82
2021/09/08 10:28:04;;;;;;;11.18;7.85;;;;;;;25.00;42.29;102250.91;4995768;28;20069;-82
2021/09/08 10:30:30;;;;;;;11.20;7.53;;;;;;;25.36;42.60;102241.81;4992082;28;20033;-82
2021/09/08 10:32:56;;;;;;;9.40;7.85;;;;;;;25.31;41.86;102244.66;4991078;28;20133;-82
2021/09/08 10:35:22;;;;;;;9.23;7.28;;;;;;;25.46;42.34;102238.81;4999746;28;20736;-82
2021/09/08 10:37:53;;;;;;;10.02;7.53;;;;;;;25.84;41.76;102238.41;4997088;28;20175;-82
2021/09/08 10:40:22;;;;;;;13.20;8.18;;;;;;;26.18;41.92;102235.81;4991206;28;20030;-82
2021/09/08 10:42:51;;;;;;;32.92;18.08;;;;;;;26.55;41.78;102236.44;5001890;28;20128;-82
2021/09/08 10:45:23;;;;;;;22.10;14.63;;;;;;;26.84;40.66;102221.28;5017131;28;20030;-82
2021/09/08 10:47:49;;;;;;;16.10;11.50;;;;;;;26.78;39.87;102226.94;5017563;28;20033;-82
2021/09/08 10:50:15;;;;;;;64.93;38.83;;;;;;;27.01;40.34;102218.56;5000716;28;20029;-82
2021/09/08 10:52:43;;;;;;;67.03;45.45;;;;;;;27.27;40.11;102207.50;4996200;28;20059;-82
2021/09/08 10:55:08;;;;;;;23.60;17.40;;;;;;;27.34;39.06;102208.66;5016922;28;20045;-82
2021/09/08 10:57:49;;;;;;;16.52;10.30;;;;;;;27.07;38.44;102211.75;4997421;28;22107;-82
2021/09/08 11:00:31;;;;;;;10.20;7.22;;;;;;;27.32;39.66;102197.16;5011018;28;20029;-82
2021/09/08 11:02:57;;;;;;;10.52;7.50;;;;;;;27.05;39.09;102192.81;5002965;28;20029;-82
2021/09/08 11:05:23;;;;;;;12.82;7.00;;;;;;;26.79;39.70;102205.75;5015858;28;20665;-82
2021/09/08 11:07:50;;;;;;;8.63;7.18;;;;;;;26.25;40.98;102196.09;5001073;28;20030;-82
2021/09/08 11:10:32;;;;;;;10.10;7.30;;;;;;;26.55;40.29;102203.44;5001836;28;20075;-82